createdAt,value
2023-09-07T00:00:37.767Z,31.30
2023-09-07T00:03:06.994Z,31.30
2023-09-07T00:05:34.738Z,31.20
2023-09-07T00:08:02.430Z,31.20
2023-09-07T00:10:30.229Z,31.20
2023-09-07T00:12:58.242Z,31.20
2023-09-07T00:15:27.315Z,31.20
2023-09-07T00:17:55.122Z,31.20
2023-09-07T00:20:25.143Z,31.20
2023-09-07T00:22:52.826Z,31.20
2023-09-07T00:25:21.278Z,31.20
2023-09-07T00:27:48.988Z,31.20
2023-09-07T00:30:16.724Z,31.20
2023-09-07T00:32:44.350Z,31.20
2023-09-07T00:35:12.098Z,31.20
2023-09-07T00:37:41.101Z,31.20
2023-09-07T00:40:10.637Z,31.20
2023-09-07T00:42:38.675Z,31.20
2023-09-07T00:45:07.358Z,31.20
2023-09-07T00:47:36.729Z,31.20
2023-09-07T00:50:05.693Z,31.20
2023-09-07T00:52:34.073Z,31.20
2023-09-07T00:55:05.212Z,31.20
2023-09-07T00:57:33.059Z,31.20
2023-09-07T01:00:00.740Z,31.20
2023-09-07T01:02:30.008Z,31.20
2023-09-07T01:04:57.837Z,31.20
2023-09-07T01:07:28.419Z,31.20
2023-09-07T01:09:59.735Z,31.20
2023-09-07T01:12:28.871Z,31.20
2023-09-07T01:14:57.152Z,31.20
2023-09-07T01:17:25.050Z,31.20
2023-09-07T01:19:54.822Z,31.10
2023-09-07T01:22:24.609Z,31.10
2023-09-07T01:24:53.954Z,31.10
2023-09-07T01:27:21.688Z,31.10
2023-09-07T01:29:49.500Z,31.10
2023-09-07T01:32:17.170Z,31.10
2023-09-07T01:34:45.382Z,31.10
2023-09-07T01:37:13.063Z,31.10
2023-09-07T01:39:42.099Z,31.10
2023-09-07T01:42:09.726Z,31.10
2023-09-07T01:44:37.587Z,31.10
2023-09-07T01:47:05.818Z,31.10
2023-09-07T01:49:33.614Z,31.10
2023-09-07T01:52:01.366Z,31.10
2023-09-07T01:54:29.013Z,31.10
2023-09-07T01:56:58.010Z,31.10
2023-09-07T01:59:25.693Z,31.10
2023-09-07T02:01:53.468Z,31.10
2023-09-07T02:04:21.459Z,31.10
2023-09-07T02:06:49.128Z,31.10
2023-09-07T02:09:16.815Z,31.10
2023-09-07T02:11:44.479Z,31.10
2023-09-07T02:14:13.527Z,31.10
2023-09-07T02:16:41.283Z,31.10
2023-09-07T02:19:09.025Z,31.10
2023-09-07T02:21:36.703Z,31.10
2023-09-07T02:24:04.611Z,31.00
2023-09-07T02:26:32.341Z,31.10
2023-09-07T02:29:00.131Z,31.10
2023-09-07T02:31:29.259Z,31.00
2023-09-07T02:33:57.064Z,31.00
2023-09-07T02:36:24.881Z,31.00
2023-09-07T02:38:52.610Z,31.00
2023-09-07T02:41:20.366Z,31.00
2023-09-07T02:43:48.088Z,31.00
2023-09-07T02:46:15.802Z,31.00
2023-09-07T02:48:44.956Z,31.00
2023-09-07T02:51:12.683Z,31.00
2023-09-07T02:53:40.360Z,31.00
2023-09-07T02:56:08.876Z,31.00
2023-09-07T02:58:38.767Z,31.00
2023-09-07T03:01:09.800Z,31.00
2023-09-07T03:03:37.734Z,31.00
2023-09-07T03:06:11.790Z,31.00
2023-09-07T03:08:39.672Z,31.00
2023-09-07T03:11:07.857Z,31.00
2023-09-07T03:13:35.539Z,31.00
2023-09-07T03:16:05.214Z,31.00
2023-09-07T03:18:33.988Z,31.00
2023-09-07T03:21:03.796Z,31.00
2023-09-07T03:23:34.870Z,31.00
2023-09-07T03:26:02.640Z,31.00
2023-09-07T03:28:30.891Z,31.00
2023-09-07T03:30:58.784Z,30.90
2023-09-07T03:33:26.484Z,30.90
2023-09-07T03:35:54.187Z,30.90
2023-09-07T03:38:21.881Z,30.90
2023-09-07T03:40:50.938Z,30.90
2023-09-07T03:43:19.842Z,30.90
2023-09-07T03:45:48.000Z,30.90
2023-09-07T03:48:15.805Z,30.90
2023-09-07T03:50:43.473Z,30.90
2023-09-07T03:53:11.185Z,30.90
2023-09-07T03:55:44.075Z,30.90
2023-09-07T03:58:13.900Z,30.90
2023-09-07T04:00:42.347Z,30.90
2023-09-07T04:03:10.652Z,30.90
2023-09-07T04:05:39.230Z,30.90
2023-09-07T04:08:07.500Z,30.90
2023-09-07T04:10:35.367Z,30.90
2023-09-07T04:13:03.996Z,30.90
2023-09-07T04:15:32.977Z,30.90
2023-09-07T04:18:00.747Z,30.90
2023-09-07T04:20:30.430Z,30.90
2023-09-07T04:22:58.166Z,30.90
2023-09-07T04:25:26.983Z,30.90
2023-09-07T04:27:54.623Z,30.90
2023-09-07T04:30:22.734Z,30.80
2023-09-07T04:32:51.934Z,30.80
2023-09-07T04:35:19.711Z,30.80
2023-09-07T04:37:47.615Z,30.80
2023-09-07T04:40:16.320Z,30.80
2023-09-07T04:42:43.969Z,30.80
2023-09-07T04:45:12.186Z,30.80
2023-09-07T04:47:39.852Z,30.80
2023-09-07T04:50:10.329Z,30.80
2023-09-07T04:52:38.106Z,30.80
2023-09-07T04:55:06.423Z,30.80
2023-09-07T04:57:34.072Z,30.80
2023-09-07T05:00:01.868Z,30.80
2023-09-07T05:02:29.630Z,30.80
2023-09-07T05:04:57.405Z,30.80
2023-09-07T05:07:26.416Z,30.80
2023-09-07T05:09:54.223Z,30.80
2023-09-07T05:12:21.934Z,30.80
2023-09-07T05:14:49.662Z,30.80
2023-09-07T05:17:17.412Z,30.80
2023-09-07T05:19:45.227Z,30.80
2023-09-07T05:22:13.082Z,30.80
2023-09-07T05:24:42.374Z,30.80
2023-09-07T05:27:10.102Z,30.80
2023-09-07T05:29:37.794Z,30.80
2023-09-07T05:32:06.232Z,30.80
2023-09-07T05:34:33.990Z,30.70
2023-09-07T05:37:01.850Z,30.70
2023-09-07T05:39:29.594Z,30.70
2023-09-07T05:41:58.650Z,30.70
2023-09-07T05:44:26.351Z,30.70
2023-09-07T05:46:55.317Z,30.70
2023-09-07T05:49:23.189Z,30.70
2023-09-07T05:51:51.099Z,30.70
2023-09-07T05:54:18.895Z,30.70
2023-09-07T05:56:46.608Z,30.70
2023-09-07T05:59:15.777Z,30.70
2023-09-07T06:01:44.055Z,30.70
2023-09-07T06:04:12.042Z,30.70
2023-09-07T06:06:39.967Z,30.70
2023-09-07T06:09:07.732Z,30.70
2023-09-07T06:11:36.270Z,30.70
2023-09-07T06:14:04.332Z,30.70
2023-09-07T06:16:33.407Z,30.70
2023-09-07T06:19:01.184Z,30.70
2023-09-07T06:21:28.957Z,30.70
2023-09-07T06:23:57.671Z,30.70
2023-09-07T06:26:25.701Z,30.80
2023-09-07T06:28:53.441Z,30.80
2023-09-07T06:31:21.271Z,30.80
2023-09-07T06:33:50.468Z,30.80
2023-09-07T06:36:20.644Z,30.80
2023-09-07T06:38:54.309Z,30.80
2023-09-07T06:41:22.050Z,30.80
2023-09-07T06:43:49.791Z,30.80
2023-09-07T06:46:17.901Z,30.90
2023-09-07T06:48:46.208Z,30.90
2023-09-07T06:51:15.450Z,30.90
2023-09-07T06:53:56.831Z,30.90
2023-09-07T06:56:25.558Z,30.90
2023-09-07T06:58:53.546Z,31.00
2023-09-07T07:01:21.354Z,31.00
2023-09-07T07:03:50.429Z,31.00
2023-09-07T07:06:20.255Z,31.00
2023-09-07T07:08:48.041Z,31.00
2023-09-07T07:11:15.795Z,31.00
2023-09-07T07:13:43.620Z,31.10
2023-09-07T07:16:11.505Z,31.10
2023-09-07T07:21:23.628Z,31.10
2023-09-07T07:23:51.304Z,31.10
2023-09-07T07:26:19.582Z,31.10
2023-09-07T07:31:32.741Z,31.20
2023-09-07T07:34:00.621Z,31.20
2023-09-07T07:36:31.244Z,31.20
2023-09-07T07:39:00.284Z,31.20
2023-09-07T07:41:28.051Z,31.20
2023-09-07T07:43:55.762Z,31.20
2023-09-07T07:46:23.583Z,31.20
2023-09-07T07:48:51.718Z,31.20
2023-09-07T07:51:19.403Z,31.20
2023-09-07T07:53:48.512Z,31.30
2023-09-07T07:56:19.635Z,31.30
2023-09-07T07:58:47.497Z,31.30
2023-09-07T08:01:16.337Z,31.30
2023-09-07T08:03:44.516Z,31.30
2023-09-07T08:06:13.231Z,31.30
2023-09-07T08:08:41.866Z,31.30
2023-09-07T08:11:10.969Z,31.30
2023-09-07T08:13:38.814Z,31.30
2023-09-07T08:16:07.575Z,31.30
2023-09-07T08:18:36.945Z,31.40
2023-09-07T08:21:05.223Z,31.40
2023-09-07T08:23:33.053Z,31.40
2023-09-07T08:26:01.276Z,31.40
2023-09-07T08:28:30.966Z,31.40
2023-09-07T08:31:00.470Z,31.40
2023-09-07T08:33:30.340Z,31.40
2023-09-07T08:36:01.671Z,31.40
2023-09-07T08:38:31.243Z,31.40
2023-09-07T08:41:04.242Z,31.40
2023-09-07T08:43:35.921Z,31.40
2023-09-07T08:46:13.097Z,31.40
2023-09-07T08:48:41.668Z,31.40
2023-09-07T08:51:12.718Z,31.50
2023-09-07T08:53:41.730Z,31.50
2023-09-07T08:56:11.333Z,31.50
2023-09-07T08:58:41.402Z,31.50
2023-09-07T09:01:09.828Z,31.50
2023-09-07T09:03:38.633Z,31.50
2023-09-07T09:06:06.869Z,31.50
2023-09-07T09:08:44.450Z,31.50
2023-09-07T09:11:12.667Z,31.50
2023-09-07T09:13:42.914Z,31.50
2023-09-07T09:16:11.618Z,31.50
2023-09-07T09:18:40.659Z,31.50
2023-09-07T09:21:08.566Z,31.50
2023-09-07T09:23:37.443Z,31.50
2023-09-07T09:26:06.543Z,31.60
2023-09-07T09:28:35.054Z,31.60
2023-09-07T09:31:04.882Z,31.60
2023-09-07T09:33:33.814Z,31.60
2023-09-07T09:36:02.021Z,31.60
2023-09-07T09:38:33.311Z,31.60
2023-09-07T09:41:01.542Z,31.60
2023-09-07T09:43:29.372Z,31.60
2023-09-07T09:45:57.313Z,31.60
2023-09-07T09:48:26.551Z,31.60
2023-09-07T09:50:54.531Z,31.60
2023-09-07T09:53:24.086Z,31.60
2023-09-07T09:55:53.772Z,31.60
2023-09-07T09:58:21.863Z,31.60
2023-09-07T10:00:52.639Z,31.60
2023-09-07T10:03:27.604Z,31.60
2023-09-07T10:05:56.708Z,31.60
2023-09-07T10:08:24.857Z,31.60
2023-09-07T10:10:55.853Z,31.60
2023-09-07T10:13:32.442Z,31.60
2023-09-07T10:16:05.738Z,31.60
2023-09-07T10:18:37.584Z,31.60
2023-09-07T10:21:08.131Z,31.60
2023-09-07T10:23:40.684Z,31.60
2023-09-07T10:26:13.406Z,31.60
2023-09-07T10:28:41.911Z,31.60
2023-09-07T10:31:16.019Z,31.60
2023-09-07T10:33:44.153Z,31.60
2023-09-07T10:36:24.005Z,31.70
2023-09-07T10:38:54.227Z,31.70
2023-09-07T10:41:22.235Z,31.70
2023-09-07T10:43:51.699Z,31.70
2023-09-07T10:46:22.085Z,31.70
2023-09-07T10:48:52.129Z,31.70
2023-09-07T10:51:21.769Z,31.70
2023-09-07T10:53:49.824Z,31.70
2023-09-07T10:56:17.600Z,31.70
2023-09-07T10:58:45.432Z,31.70
2023-09-07T11:01:15.829Z,31.70
2023-09-07T11:03:45.365Z,31.70
2023-09-07T11:06:17.660Z,31.70
2023-09-07T11:08:46.777Z,31.70
2023-09-07T11:11:15.306Z,31.70
2023-09-07T11:13:43.239Z,31.70
2023-09-07T11:16:12.125Z,31.70
2023-09-07T11:18:39.911Z,31.70
2023-09-07T11:21:08.579Z,31.70
2023-09-07T11:23:39.530Z,31.70
2023-09-07T11:26:10.399Z,31.70
2023-09-07T11:28:39.711Z,31.70
2023-09-07T11:31:07.605Z,31.70
2023-09-07T11:33:36.650Z,31.70
2023-09-07T11:36:05.565Z,31.70
2023-09-07T11:38:38.761Z,31.70
2023-09-07T11:41:07.950Z,31.70
2023-09-07T11:43:35.961Z,31.70
2023-09-07T11:46:05.873Z,31.70
2023-09-07T11:48:35.268Z,31.70
2023-09-07T11:51:03.181Z,31.70
2023-09-07T11:53:31.294Z,31.70
2023-09-07T11:56:00.152Z,31.70
2023-09-07T11:58:30.917Z,31.70
2023-09-07T12:00:58.985Z,31.70
2023-09-07T12:03:27.067Z,31.70
2023-09-07T12:05:55.302Z,31.70
2023-09-07T12:08:22.969Z,31.70
2023-09-07T12:10:50.732Z,31.70
2023-09-07T12:13:18.428Z,31.70
2023-09-07T12:15:47.610Z,31.70
2023-09-07T12:18:15.501Z,31.70
2023-09-07T12:20:44.277Z,31.70
2023-09-07T12:23:12.161Z,31.70
2023-09-07T12:25:39.897Z,31.70
2023-09-07T12:28:07.721Z,31.70
2023-09-07T12:30:35.750Z,31.70
2023-09-07T12:33:05.010Z,31.70
2023-09-07T12:35:32.677Z,31.70
2023-09-07T12:38:00.825Z,31.70
2023-09-07T12:40:28.663Z,31.70
2023-09-07T12:42:56.445Z,31.70
2023-09-07T12:45:24.378Z,31.70
2023-09-07T12:47:52.108Z,31.70
2023-09-07T12:50:21.222Z,31.70
2023-09-07T12:52:48.907Z,31.70
2023-09-07T12:55:16.830Z,31.70
2023-09-07T12:57:44.876Z,31.70
2023-09-07T13:00:13.843Z,31.70
2023-09-07T13:02:41.714Z,31.70
2023-09-07T13:05:10.274Z,31.70
2023-09-07T13:07:39.486Z,31.70
2023-09-07T13:10:08.013Z,31.70
2023-09-07T13:12:35.706Z,31.70
2023-09-07T13:15:03.666Z,31.70
2023-09-07T13:17:31.422Z,31.70
2023-09-07T13:19:59.090Z,31.70
2023-09-07T13:22:26.860Z,31.70
2023-09-07T13:24:55.902Z,31.70
2023-09-07T13:27:23.678Z,31.70
2023-09-07T13:29:51.420Z,31.70
2023-09-07T13:32:19.600Z,31.70
2023-09-07T13:34:47.348Z,31.70
2023-09-07T13:37:14.991Z,31.70
2023-09-07T13:39:42.657Z,31.70
2023-09-07T13:42:12.218Z,31.70
2023-09-07T13:44:39.906Z,31.70
2023-09-07T13:47:07.941Z,31.70
2023-09-07T13:49:35.639Z,31.70
2023-09-07T13:52:04.189Z,31.70
2023-09-07T13:54:31.871Z,31.70
2023-09-07T13:56:59.568Z,31.70
2023-09-07T13:59:33.768Z,31.70
2023-09-07T14:02:01.608Z,31.70
2023-09-07T14:04:29.925Z,31.70
2023-09-07T14:06:57.651Z,31.70
2023-09-07T14:09:25.561Z,31.70
2023-09-07T14:11:53.250Z,31.70
2023-09-07T14:14:22.042Z,31.70
2023-09-07T14:16:56.478Z,31.70
2023-09-07T14:19:26.683Z,31.70
2023-09-07T14:21:55.540Z,31.70
2023-09-07T14:24:23.288Z,31.70
2023-09-07T14:26:51.146Z,31.70
2023-09-07T14:29:18.954Z,31.70
2023-09-07T14:31:46.976Z,31.70
2023-09-07T14:34:16.206Z,31.70
2023-09-07T14:36:44.023Z,31.70
2023-09-07T14:39:11.793Z,31.70
2023-09-07T14:41:41.138Z,31.70
2023-09-07T14:44:09.284Z,31.70
2023-09-07T14:46:37.027Z,31.70
2023-09-07T14:49:05.025Z,31.70
2023-09-07T14:51:34.055Z,31.70
2023-09-07T14:54:02.016Z,31.70
2023-09-07T14:56:30.665Z,31.70
2023-09-07T14:58:58.658Z,31.70
2023-09-07T15:01:26.379Z,31.70
2023-09-07T15:03:54.281Z,31.70
2023-09-07T15:06:22.038Z,31.70
2023-09-07T15:08:51.593Z,31.70
2023-09-07T15:11:19.418Z,31.70
2023-09-07T15:13:47.881Z,31.70
2023-09-07T15:16:15.752Z,31.70
2023-09-07T15:18:45.232Z,31.70
2023-09-07T15:21:13.387Z,31.70
2023-09-07T15:23:41.477Z,31.70
2023-09-07T15:26:10.728Z,31.70
2023-09-07T15:28:40.232Z,31.70
2023-09-07T15:31:08.243Z,31.70
2023-09-07T15:33:36.522Z,31.80
2023-09-07T15:36:04.456Z,31.70
2023-09-07T15:38:32.517Z,31.70
2023-09-07T15:41:05.440Z,31.70
2023-09-07T15:43:34.715Z,31.70
2023-09-07T15:46:02.533Z,31.70
2023-09-07T15:48:30.726Z,31.70
2023-09-07T15:50:59.271Z,31.70
2023-09-07T15:53:27.022Z,31.70
2023-09-07T15:55:54.826Z,31.70
2023-09-07T15:58:22.801Z,31.70
2023-09-07T16:00:51.807Z,31.70
2023-09-07T16:03:19.652Z,31.70
2023-09-07T16:05:48.823Z,31.70
2023-09-07T16:08:16.647Z,31.70
2023-09-07T16:10:44.357Z,31.70
2023-09-07T16:13:12.273Z,31.70
2023-09-07T16:15:39.946Z,31.70
2023-09-07T16:18:09.080Z,31.70
2023-09-07T16:20:37.033Z,31.70
2023-09-07T16:23:05.185Z,31.70
2023-09-07T16:25:32.946Z,31.70
2023-09-07T16:28:00.814Z,31.70
2023-09-07T16:30:28.490Z,31.80
2023-09-07T16:32:56.454Z,31.70
2023-09-07T16:35:25.615Z,31.70
2023-09-07T16:37:53.316Z,31.80
2023-09-07T16:40:21.611Z,31.70
2023-09-07T16:42:49.363Z,31.70
2023-09-07T16:45:17.034Z,31.80
2023-09-07T16:47:44.685Z,31.70
2023-09-07T16:50:12.457Z,31.70
2023-09-07T16:52:41.507Z,31.80
2023-09-07T16:55:09.989Z,31.80
2023-09-07T16:57:37.846Z,31.80
2023-09-07T17:00:06.961Z,31.80
2023-09-07T17:02:35.230Z,31.70
2023-09-07T17:05:03.938Z,31.80
2023-09-07T17:07:31.641Z,31.80
2023-09-07T17:10:00.660Z,31.80
2023-09-07T17:12:28.318Z,31.80
2023-09-07T17:14:56.079Z,31.80
2023-09-07T17:17:23.780Z,31.80
2023-09-07T17:19:51.484Z,31.80
2023-09-07T17:22:19.193Z,31.80
2023-09-07T17:24:46.849Z,31.80
2023-09-07T17:27:15.830Z,31.70
2023-09-07T17:29:43.547Z,31.80
2023-09-07T17:32:11.292Z,31.80
2023-09-07T17:34:39.574Z,31.80
2023-09-07T17:37:07.611Z,31.80
2023-09-07T17:39:36.465Z,31.80
2023-09-07T17:42:04.476Z,31.80
2023-09-07T17:44:33.736Z,31.80
2023-09-07T17:47:02.163Z,31.80
2023-09-07T17:49:29.880Z,31.80
2023-09-07T17:51:57.690Z,31.80
2023-09-07T17:54:25.531Z,31.80
2023-09-07T17:56:53.275Z,31.80
2023-09-07T17:59:20.935Z,31.80
2023-09-07T18:01:50.068Z,31.80
2023-09-07T18:04:17.979Z,31.80
2023-09-07T18:06:45.777Z,31.80
2023-09-07T18:09:13.503Z,31.80
2023-09-07T18:11:44.973Z,31.80
2023-09-07T18:14:13.449Z,31.80
2023-09-07T18:16:42.490Z,31.80
2023-09-07T18:19:12.364Z,31.80
2023-09-07T18:21:40.449Z,31.80
2023-09-07T18:24:08.364Z,31.80
2023-09-07T18:26:37.047Z,31.80
2023-09-07T18:29:05.572Z,31.80
2023-09-07T18:31:33.337Z,31.80
2023-09-07T18:34:02.821Z,31.80
2023-09-07T18:36:34.289Z,31.80
2023-09-07T18:39:01.984Z,31.80
2023-09-07T18:41:29.626Z,31.80
2023-09-07T18:43:57.280Z,31.80
2023-09-07T18:46:25.225Z,31.80
2023-09-07T18:48:52.965Z,31.80
2023-09-07T18:51:20.604Z,31.80
2023-09-07T18:53:49.715Z,31.80
2023-09-07T18:56:17.380Z,31.80
2023-09-07T18:58:45.290Z,31.80
2023-09-07T19:01:15.010Z,31.80
2023-09-07T19:03:47.610Z,31.80
2023-09-07T19:06:15.754Z,31.80
2023-09-07T19:08:43.690Z,31.80
2023-09-07T19:11:13.616Z,31.80
2023-09-07T19:13:41.423Z,31.80
2023-09-07T19:16:14.128Z,31.80
2023-09-07T19:18:41.966Z,31.80
2023-09-07T19:21:23.377Z,31.80
2023-09-07T19:23:52.800Z,31.80
2023-09-07T19:26:33.158Z,31.80
2023-09-07T19:29:01.864Z,31.80
2023-09-07T19:31:29.654Z,31.80
2023-09-07T19:33:59.196Z,31.80
2023-09-07T19:36:27.837Z,31.80
2023-09-07T19:38:57.877Z,31.80
2023-09-07T19:41:25.731Z,31.80
2023-09-07T19:43:54.804Z,31.80
2023-09-07T19:46:22.607Z,31.80
2023-09-07T19:48:51.050Z,31.80
2023-09-07T19:51:20.757Z,31.80
2023-09-07T19:53:49.753Z,31.80
2023-09-07T19:56:19.778Z,31.80
2023-09-07T19:58:47.616Z,31.80
2023-09-07T20:01:18.134Z,31.80
2023-09-07T20:03:47.546Z,31.80
2023-09-07T20:06:16.881Z,31.80
2023-09-07T20:08:44.648Z,31.80
2023-09-07T20:11:13.727Z,31.80
2023-09-07T20:13:42.805Z,31.80
2023-09-07T20:16:12.808Z,31.80
2023-09-07T20:18:42.181Z,31.80
2023-09-07T20:21:11.876Z,31.80
2023-09-07T20:23:41.120Z,31.80
2023-09-07T20:26:09.159Z,31.80
2023-09-07T20:28:37.091Z,31.80
2023-09-07T20:31:06.997Z,31.80
2023-09-07T20:33:35.031Z,31.80
2023-09-07T20:36:04.546Z,31.80
2023-09-07T20:38:32.982Z,31.80
2023-09-07T20:41:02.575Z,31.80
2023-09-07T20:43:30.303Z,31.80
2023-09-07T20:45:58.902Z,31.80
2023-09-07T20:48:26.761Z,31.80
2023-09-07T20:50:54.698Z,31.80
2023-09-07T20:53:24.084Z,31.80
2023-09-07T20:55:51.790Z,31.80
2023-09-07T20:58:19.518Z,31.80
2023-09-07T21:00:47.262Z,31.80
2023-09-07T21:03:15.092Z,31.80
2023-09-07T21:05:42.896Z,31.80
2023-09-07T21:08:10.650Z,31.70
2023-09-07T21:10:39.819Z,31.70
2023-09-07T21:13:07.517Z,31.70
2023-09-07T21:15:35.216Z,31.80
2023-09-07T21:18:03.034Z,31.70
2023-09-07T21:20:31.711Z,31.70
2023-09-07T21:22:59.915Z,31.70
2023-09-07T21:25:27.822Z,31.70
2023-09-07T21:27:56.939Z,31.70
2023-09-07T21:30:24.798Z,31.70
2023-09-07T21:32:52.693Z,31.70
2023-09-07T21:35:20.759Z,31.70
2023-09-07T21:37:48.541Z,31.70
2023-09-07T21:40:16.497Z,31.70
2023-09-07T21:42:44.444Z,31.70
2023-09-07T21:45:13.602Z,31.70
2023-09-07T21:47:41.407Z,31.70
2023-09-07T21:50:09.828Z,31.70
2023-09-07T21:52:37.754Z,31.70
2023-09-07T21:55:06.220Z,31.70
2023-09-07T21:57:33.993Z,31.70
2023-09-07T22:00:05.605Z,31.70
2023-09-07T22:02:36.007Z,31.70
2023-09-07T22:05:04.071Z,31.70
2023-09-07T22:07:31.839Z,31.70
2023-09-07T22:09:59.555Z,31.70
2023-09-07T22:12:27.291Z,31.70
2023-09-07T22:14:54.996Z,31.70
2023-09-07T22:17:22.809Z,31.70
2023-09-07T22:19:52.394Z,31.70
2023-09-07T22:22:20.284Z,31.70
2023-09-07T22:24:48.020Z,31.70
2023-09-07T22:27:15.718Z,31.70
2023-09-07T22:29:43.459Z,31.70
2023-09-07T22:32:11.220Z,31.70
2023-09-07T22:34:38.916Z,31.70
2023-09-07T22:37:08.176Z,31.70
2023-09-07T22:39:35.888Z,31.70
2023-09-07T22:42:03.667Z,31.70
2023-09-07T22:44:31.416Z,31.70
2023-09-07T22:46:59.510Z,31.70
2023-09-07T22:49:27.278Z,31.60
2023-09-07T22:51:55.018Z,31.60
2023-09-07T22:54:24.125Z,31.60
2023-09-07T22:56:51.916Z,31.60
2023-09-07T22:59:19.696Z,31.60
2023-09-07T23:01:47.445Z,31.60
2023-09-07T23:04:15.433Z,31.60
2023-09-07T23:06:43.234Z,31.60
2023-09-07T23:09:12.331Z,31.60
2023-09-07T23:11:42.784Z,31.60
2023-09-07T23:14:11.038Z,31.60
2023-09-07T23:16:38.886Z,31.60
2023-09-07T23:19:06.917Z,31.60
2023-09-07T23:21:34.837Z,31.60
2023-09-07T23:24:02.777Z,31.60
2023-09-07T23:26:30.576Z,31.60
2023-09-07T23:28:59.675Z,31.60
2023-09-07T23:31:27.482Z,31.60
2023-09-07T23:33:55.223Z,31.60
2023-09-07T23:36:25.393Z,31.60
2023-09-07T23:38:53.180Z,31.60
2023-09-07T23:41:21.079Z,31.60
2023-09-07T23:43:49.063Z,31.60
2023-09-07T23:46:18.408Z,31.60
2023-09-07T23:48:46.129Z,31.60
2023-09-07T23:51:13.792Z,31.60
2023-09-07T23:53:41.588Z,31.60
2023-09-07T23:56:09.403Z,31.60
2023-09-07T23:58:37.342Z,31.60
